createdAt,value
2022-08-31T00:00:40.077Z,96352.28
2022-08-31T00:03:26.069Z,96354.38
2022-08-31T00:06:01.068Z,96343.59
2022-08-31T00:08:29.400Z,96358.09
2022-08-31T00:10:56.660Z,96355.63
2022-08-31T00:13:25.988Z,96348.97
2022-08-31T00:15:53.907Z,96345.00
2022-08-31T00:18:21.265Z,96347.31
2022-08-31T00:20:48.828Z,96342.72
2022-08-31T00:23:17.562Z,96338.19
2022-08-31T00:25:47.688Z,96338.78
2022-08-31T00:28:16.663Z,96330.69
2022-08-31T00:30:44.213Z,96330.50
2022-08-31T00:33:12.220Z,96325.94
2022-08-31T00:35:41.757Z,96323.03
2022-08-31T00:38:10.325Z,96321.59
2022-08-31T00:40:44.248Z,96324.28
2022-08-31T00:43:11.936Z,96318.03
2022-08-31T00:45:38.646Z,96321.38
2022-08-31T00:48:05.426Z,96319.94
2022-08-31T00:50:32.311Z,96317.00
2022-08-31T00:53:01.261Z,96303.75
2022-08-31T00:55:33.122Z,96301.69
2022-08-31T00:58:03.838Z,96302.09
2022-08-31T01:00:31.475Z,96299.63
2022-08-31T01:03:02.004Z,96300.47
2022-08-31T01:05:29.947Z,96302.31
2022-08-31T01:07:59.177Z,96305.00
2022-08-31T01:10:31.223Z,96295.88
2022-08-31T01:12:59.744Z,96293.81
2022-08-31T01:15:29.627Z,96297.78
2022-08-31T01:17:59.452Z,96295.31
2022-08-31T01:20:48.667Z,96299.88
2022-08-31T01:23:28.153Z,96298.00
2022-08-31T01:25:58.383Z,96299.88
2022-08-31T01:28:26.251Z,96298.44
2022-08-31T01:31:00.753Z,96299.28
2022-08-31T01:33:28.258Z,96289.97
2022-08-31T01:35:57.262Z,96290.16
2022-08-31T01:38:24.424Z,96284.38
2022-08-31T01:40:54.794Z,96288.09
2022-08-31T01:43:22.031Z,96289.53
2022-08-31T01:45:49.321Z,96290.56
2022-08-31T01:48:17.013Z,96286.84
2022-08-31T01:50:44.222Z,96281.25
2022-08-31T01:53:11.525Z,96276.50
2022-08-31T01:55:39.256Z,96278.13
2022-08-31T01:58:06.480Z,96279.78
2022-08-31T02:00:33.301Z,96282.25
2022-08-31T02:03:02.689Z,96277.72
2022-08-31T02:05:30.722Z,96272.34
2022-08-31T02:07:57.887Z,96273.38
2022-08-31T02:10:25.163Z,96272.75
2022-08-31T02:12:51.981Z,96269.00
2022-08-31T02:15:18.835Z,96272.94
2022-08-31T02:17:45.702Z,96270.88
2022-08-31T02:20:14.866Z,96267.34
2022-08-31T02:22:42.258Z,96267.78
2022-08-31T02:25:09.859Z,96267.78
2022-08-31T02:27:37.467Z,96270.69
2022-08-31T02:30:10.941Z,96258.69
2022-08-31T02:32:37.731Z,96264.88
2022-08-31T02:35:05.304Z,96258.03
2022-08-31T02:37:32.257Z,96267.34
2022-08-31T02:39:59.243Z,96265.72
2022-08-31T02:42:30.009Z,96253.66
2022-08-31T02:44:59.743Z,96249.56
2022-08-31T02:47:27.576Z,96254.94
2022-08-31T02:49:54.447Z,96256.78
2022-08-31T02:52:21.136Z,96251.84
2022-08-31T02:54:48.102Z,96249.75
2022-08-31T02:57:14.995Z,96247.50
2022-08-31T02:59:41.788Z,96252.88
2022-08-31T03:02:08.706Z,96244.41
2022-08-31T03:04:35.474Z,96248.38
2022-08-31T03:07:02.604Z,96240.69
2022-08-31T03:09:29.323Z,96253.13
2022-08-31T03:11:56.036Z,96256.66
2022-08-31T03:14:22.781Z,96245.88
2022-08-31T03:16:51.738Z,96252.91
2022-08-31T03:19:18.862Z,96250.00
2022-08-31T03:21:47.631Z,96251.06
2022-08-31T03:24:22.141Z,96249.63
2022-08-31T03:26:54.619Z,96249.00
2022-08-31T03:29:21.317Z,96257.09
2022-08-31T03:31:48.002Z,96257.31
2022-08-31T03:34:16.084Z,96258.75
2022-08-31T03:36:42.905Z,96246.72
2022-08-31T03:39:09.608Z,96248.41
2022-08-31T03:41:36.340Z,96244.47
2022-08-31T03:44:03.808Z,96250.44
2022-08-31T03:46:31.897Z,96255.25
2022-08-31T03:49:02.892Z,96253.56
2022-08-31T03:51:29.829Z,96257.94
2022-08-31T03:53:56.915Z,96262.69
2022-08-31T03:56:23.827Z,96261.22
2022-08-31T03:58:50.782Z,96257.31
2022-08-31T04:01:17.633Z,96258.97
2022-08-31T04:03:44.448Z,96257.75
2022-08-31T04:06:12.669Z,96263.91
2022-08-31T04:08:40.827Z,96262.06
2022-08-31T04:11:17.539Z,96265.00
2022-08-31T04:13:47.000Z,96272.88
2022-08-31T04:16:17.940Z,96274.09
2022-08-31T04:18:45.917Z,96273.69
2022-08-31T04:21:20.342Z,96276.16
2022-08-31T04:23:48.073Z,96274.09
2022-08-31T04:26:27.137Z,96272.03
2022-08-31T04:28:55.040Z,96269.75
2022-08-31T04:31:23.509Z,96275.34
2022-08-31T04:33:50.622Z,96269.53
2022-08-31T04:36:21.171Z,96263.94
2022-08-31T04:38:51.292Z,96260.63
2022-08-31T04:41:20.193Z,96262.91
2022-08-31T04:43:51.015Z,96264.56
2022-08-31T04:46:19.317Z,96265.38
2022-08-31T04:48:46.247Z,96263.53
2022-08-31T04:51:16.386Z,96259.56
2022-08-31T04:53:44.100Z,96262.47
2022-08-31T04:56:16.653Z,96262.47
2022-08-31T04:58:48.866Z,96264.94
2022-08-31T05:01:18.436Z,96260.19
2022-08-31T05:03:45.281Z,96265.16
2022-08-31T05:06:17.544Z,96260.78
2022-08-31T05:08:44.740Z,96258.72
2022-08-31T05:11:14.485Z,96257.47
2022-08-31T05:13:41.383Z,96259.72
2022-08-31T05:16:10.705Z,96262.63
2022-08-31T05:18:39.345Z,96264.50
2022-08-31T05:21:15.381Z,96259.06
2022-08-31T05:23:45.802Z,96261.13
2022-08-31T05:26:24.682Z,96257.75
2022-08-31T05:28:54.256Z,96254.19
2022-08-31T05:31:21.859Z,96256.03
2022-08-31T05:33:49.037Z,96250.22
2022-08-31T05:36:16.234Z,96247.47
2022-08-31T05:38:43.257Z,96251.97
2022-08-31T05:41:10.910Z,96254.16
2022-08-31T05:43:38.585Z,96256.81
2022-08-31T05:46:10.788Z,96256.78
2022-08-31T05:48:38.319Z,96255.69
2022-08-31T05:51:11.400Z,96259.78
2022-08-31T05:53:40.282Z,96257.69
2022-08-31T05:56:12.977Z,96258.53
2022-08-31T05:58:41.423Z,96261.19
2022-08-31T06:01:26.501Z,96271.16
2022-08-31T06:03:57.020Z,96273.91
2022-08-31T06:06:24.024Z,96276.25
2022-08-31T06:08:54.176Z,96269.38
2022-08-31T06:11:24.414Z,96277.81
2022-08-31T06:13:52.808Z,96275.31
2022-08-31T06:16:21.268Z,96267.78
2022-08-31T06:18:51.116Z,96265.44
2022-08-31T06:21:23.492Z,96268.31
2022-08-31T06:23:52.057Z,96264.97
2022-08-31T06:26:21.305Z,96271.16
2022-08-31T06:28:51.412Z,96269.00
2022-08-31T06:31:30.547Z,96263.47
2022-08-31T06:33:58.622Z,96260.56
2022-08-31T06:36:28.125Z,96269.28
2022-08-31T06:38:56.901Z,96260.88
2022-08-31T06:41:27.265Z,96269.31
2022-08-31T06:43:54.486Z,96265.69
2022-08-31T06:46:23.974Z,96263.38
2022-08-31T06:48:55.273Z,96263.53
2022-08-31T06:51:22.178Z,96269.75
2022-08-31T06:53:48.928Z,96263.47
2022-08-31T06:56:21.028Z,96262.47
2022-08-31T06:58:53.789Z,96272.38
2022-08-31T07:01:35.301Z,96272.75
2022-08-31T07:04:05.586Z,96268.22
2022-08-31T07:06:36.034Z,96274.09
2022-08-31T07:09:05.712Z,96269.59
2022-08-31T07:11:52.731Z,96276.28
2022-08-31T07:14:22.900Z,96267.31
2022-08-31T07:16:51.166Z,96280.81
2022-08-31T07:19:18.127Z,96277.31
2022-08-31T07:21:48.230Z,96280.81
2022-08-31T07:24:18.112Z,96294.56
2022-08-31T07:26:48.032Z,96312.16
2022-08-31T07:29:18.345Z,96314.22
2022-08-31T07:31:48.156Z,96321.13
2022-08-31T07:34:19.345Z,96331.38
2022-08-31T07:37:05.767Z,96327.06
2022-08-31T07:39:51.965Z,96324.00
2022-08-31T07:42:24.540Z,96333.59
2022-08-31T07:44:54.274Z,96330.53
2022-08-31T07:47:22.697Z,96328.00
2022-08-31T07:49:52.866Z,96324.25
2022-08-31T07:52:26.631Z,96327.63
2022-08-31T07:54:57.759Z,96330.94
2022-08-31T07:57:26.001Z,96325.19
2022-08-31T08:00:01.332Z,96326.91
2022-08-31T08:02:29.185Z,96331.91
2022-08-31T08:04:55.958Z,96332.72
2022-08-31T08:07:23.020Z,96335.25
2022-08-31T08:09:49.748Z,96329.44
2022-08-31T08:12:18.532Z,96336.69
2022-08-31T08:14:49.291Z,96347.28
2022-08-31T08:17:15.963Z,96342.69
2022-08-31T08:19:42.695Z,96356.59
2022-08-31T08:22:09.457Z,96353.25
2022-08-31T08:24:36.252Z,96359.50
2022-08-31T08:27:02.926Z,96355.16
2022-08-31T08:29:29.951Z,96350.22
2022-08-31T08:32:00.558Z,96356.00
2022-08-31T08:34:32.319Z,96356.88
2022-08-31T08:36:59.530Z,96355.66
2022-08-31T08:39:26.457Z,96355.66
2022-08-31T08:41:57.557Z,96360.03
2022-08-31T08:44:28.430Z,96354.63
2022-08-31T08:46:58.906Z,96352.16
2022-08-31T08:49:28.640Z,96359.81
2022-08-31T08:51:59.321Z,96364.97
2022-08-31T08:54:30.591Z,96352.31
2022-08-31T08:56:58.067Z,96356.47
2022-08-31T08:59:24.903Z,96356.91
2022-08-31T09:01:56.462Z,96363.53
2022-08-31T09:04:37.265Z,96358.13
2022-08-31T09:07:30.799Z,96366.22
2022-08-31T09:10:26.323Z,96367.44
2022-08-31T09:12:58.215Z,96373.25
2022-08-31T09:15:47.732Z,96366.41
2022-08-31T09:18:29.056Z,96361.03
2022-08-31T09:21:13.661Z,96357.69
2022-08-31T09:23:44.285Z,96359.38
2022-08-31T09:26:16.963Z,96362.69
2022-08-31T09:28:49.430Z,96361.22
2022-08-31T09:31:48.731Z,96351.25
2022-08-31T09:34:29.577Z,96344.41
2022-08-31T09:37:25.717Z,96333.84
2022-08-31T09:39:54.074Z,96352.03
2022-08-31T09:42:34.000Z,96343.13
2022-08-31T09:45:14.146Z,96335.06
2022-08-31T09:47:48.660Z,96337.50
2022-08-31T09:50:45.029Z,96328.56
2022-08-31T09:53:38.771Z,96335.38
2022-08-31T09:56:19.161Z,96333.63
2022-08-31T09:58:48.677Z,96325.06
2022-08-31T10:01:19.860Z,96331.84
2022-08-31T10:03:47.895Z,96319.53
2022-08-31T10:06:35.646Z,96317.56
2022-08-31T10:09:10.752Z,96316.09
2022-08-31T10:11:39.485Z,96319.84
2022-08-31T10:14:20.049Z,96318.13
2022-08-31T10:16:52.544Z,96321.44
2022-08-31T10:19:32.777Z,96314.59
2022-08-31T10:22:07.245Z,96308.97
2022-08-31T10:24:39.296Z,96306.66
2022-08-31T10:27:32.381Z,96309.91
2022-08-31T10:30:17.037Z,96305.88
2022-08-31T10:32:58.365Z,96306.53
2022-08-31T10:35:47.174Z,96297.19
2022-08-31T10:38:26.751Z,96300.97
2022-08-31T10:41:16.986Z,96293.47
2022-08-31T10:43:53.807Z,96289.88
2022-08-31T10:46:20.766Z,96291.97
2022-08-31T10:48:54.704Z,96286.13
2022-08-31T10:51:39.694Z,96283.66
2022-08-31T10:54:17.034Z,96283.94
2022-08-31T10:57:25.995Z,96282.69
2022-08-31T11:00:03.794Z,96274.59
2022-08-31T11:02:33.137Z,96278.63
2022-08-31T11:05:35.291Z,96276.69
2022-08-31T11:08:24.811Z,96269.28
2022-08-31T11:10:54.189Z,96267.38
2022-08-31T11:13:45.149Z,96265.44
2022-08-31T11:16:38.856Z,96264.59
2022-08-31T11:19:11.653Z,96266.94
2022-08-31T11:21:54.110Z,96265.16
2022-08-31T11:24:37.084Z,96262.06
2022-08-31T11:27:17.462Z,96261.72
2022-08-31T11:29:56.802Z,96258.56
2022-08-31T11:32:36.143Z,96256.91
2022-08-31T11:35:10.320Z,96258.69
2022-08-31T11:38:00.687Z,96249.28
2022-08-31T11:40:42.311Z,96254.47
2022-08-31T11:43:33.416Z,96254.94
2022-08-31T11:46:29.213Z,96256.31
2022-08-31T11:48:55.953Z,96248.72
2022-08-31T11:51:41.221Z,96252.13
2022-08-31T11:54:11.228Z,96247.28
2022-08-31T11:56:40.475Z,96253.81
2022-08-31T11:59:26.402Z,96256.47
2022-08-31T12:01:59.858Z,96259.84
2022-08-31T12:04:46.500Z,96259.59
2022-08-31T12:07:38.992Z,96257.78
2022-08-31T12:10:37.616Z,96260.16
2022-08-31T12:13:28.068Z,96259.75
2022-08-31T12:16:07.296Z,96257.13
2022-08-31T12:18:52.417Z,96260.97
2022-08-31T12:21:52.886Z,96256.94
2022-08-31T12:24:49.517Z,96261.19
2022-08-31T12:27:38.672Z,96258.19
2022-08-31T12:30:17.153Z,96253.47
2022-08-31T12:32:46.340Z,96257.19
2022-08-31T12:35:21.658Z,96255.47
2022-08-31T12:38:16.945Z,96267.03
2022-08-31T12:40:45.230Z,96261.84
2022-08-31T12:43:23.430Z,96262.47
2022-08-31T12:46:11.136Z,96266.59
2022-08-31T12:48:51.386Z,96257.44
2022-08-31T12:51:29.924Z,96256.91
2022-08-31T12:54:15.016Z,96250.06
2022-08-31T12:57:05.752Z,96253.91
2022-08-31T13:00:04.352Z,96250.16
2022-08-31T13:02:35.780Z,96252.63
2022-08-31T13:05:02.926Z,96244.53
2022-08-31T13:07:34.611Z,96251.75
2022-08-31T13:10:35.951Z,96248.59
2022-08-31T13:13:07.474Z,96254.00
2022-08-31T13:15:44.080Z,96255.28
2022-08-31T13:18:21.774Z,96248.66
2022-08-31T13:20:53.348Z,96243.91
2022-08-31T13:23:30.118Z,96246.25
2022-08-31T13:26:15.200Z,96246.41
2022-08-31T13:28:41.916Z,96242.41
2022-08-31T13:31:09.567Z,96241.50
2022-08-31T13:33:40.592Z,96243.09
2022-08-31T13:36:34.325Z,96242.09
2022-08-31T13:39:15.727Z,96239.47
2022-08-31T13:42:08.453Z,96245.25
2022-08-31T13:44:40.045Z,96250.03
2022-08-31T13:47:27.173Z,96244.50
2022-08-31T13:50:08.982Z,96245.16
2022-08-31T13:52:37.421Z,96255.19
2022-08-31T13:55:13.659Z,96249.56
2022-08-31T13:57:41.729Z,96253.94
2022-08-31T14:00:39.158Z,96243.16
2022-08-31T14:03:41.126Z,96256.88
2022-08-31T14:06:26.111Z,96250.09
2022-08-31T14:09:03.628Z,96257.59
2022-08-31T14:11:33.882Z,96253.03
2022-08-31T14:14:08.599Z,96246.34
2022-08-31T14:16:40.139Z,96246.97
2022-08-31T14:19:12.155Z,96244.25
2022-08-31T14:21:42.314Z,96242.59
2022-08-31T14:24:12.424Z,96243.63
2022-08-31T14:26:42.848Z,96244.75
2022-08-31T14:29:15.727Z,96250.00
2022-08-31T14:31:52.950Z,96252.72
2022-08-31T14:34:25.115Z,96251.53
2022-08-31T14:37:20.047Z,96254.03
2022-08-31T14:39:52.163Z,96253.53
2022-08-31T14:42:28.765Z,96247.97
2022-08-31T14:45:11.238Z,96246.53
2022-08-31T14:47:42.727Z,96253.81
2022-08-31T14:50:16.361Z,96256.31
2022-08-31T14:52:45.886Z,96250.50
2022-08-31T14:55:14.323Z,96246.88
2022-08-31T14:57:47.268Z,96251.69
2022-08-31T15:00:23.310Z,96247.78
2022-08-31T15:02:54.780Z,96246.91
2022-08-31T15:05:24.031Z,96241.09
2022-08-31T15:07:53.646Z,96235.72
2022-08-31T15:10:24.498Z,96231.38
2022-08-31T15:12:52.593Z,96244.44
2022-08-31T15:15:20.975Z,96237.00
2022-08-31T15:17:50.644Z,96240.34
2022-08-31T15:20:19.753Z,96235.78
2022-08-31T15:22:47.909Z,96236.81
2022-08-31T15:25:15.553Z,96236.19
2022-08-31T15:27:44.622Z,96236.19
2022-08-31T15:30:14.766Z,96244.72
2022-08-31T15:32:46.907Z,96239.56
2022-08-31T15:35:24.603Z,96235.00
2022-08-31T15:37:56.584Z,96238.31
2022-08-31T15:40:24.015Z,96238.94
2022-08-31T15:42:53.365Z,96237.72
2022-08-31T15:45:22.067Z,96234.66
2022-08-31T15:48:07.697Z,96233.41
2022-08-31T15:50:36.020Z,96242.91
2022-08-31T15:53:09.602Z,96235.91
2022-08-31T15:55:40.981Z,96235.69
2022-08-31T15:58:09.532Z,96234.66
2022-08-31T16:00:37.547Z,96224.13
2022-08-31T16:03:05.281Z,96224.28
2022-08-31T16:05:43.839Z,96224.72
2022-08-31T16:08:12.032Z,96229.50
2022-08-31T16:10:44.646Z,96225.97
2022-08-31T16:13:11.394Z,96223.50
2022-08-31T16:15:39.316Z,96220.59
2022-08-31T16:18:06.875Z,96220.59
2022-08-31T16:20:34.804Z,96210.84
2022-08-31T16:23:03.185Z,96220.22
2022-08-31T16:25:32.085Z,96217.09
2022-08-31T16:28:15.293Z,96212.34
2022-08-31T16:30:43.922Z,96216.47
2022-08-31T16:33:12.210Z,96213.41
2022-08-31T16:35:39.615Z,96223.72
2022-08-31T16:38:07.274Z,96216.09
2022-08-31T16:40:34.320Z,96220.22
2022-08-31T16:43:01.839Z,96219.38
2022-08-31T16:45:28.824Z,96221.69
2022-08-31T16:48:15.573Z,96236.00
2022-08-31T16:50:50.113Z,96229.78
2022-08-31T16:53:18.419Z,96236.78
2022-08-31T16:55:47.564Z,96234.31
2022-08-31T16:58:29.638Z,96238.03
2022-08-31T17:01:12.813Z,96231.84
2022-08-31T17:03:44.008Z,96228.53
2022-08-31T17:06:11.247Z,96231.22
2022-08-31T17:08:41.450Z,96223.16
2022-08-31T17:11:17.688Z,96228.53
2022-08-31T17:13:47.619Z,96225.00
2022-08-31T17:16:21.371Z,96224.78
2022-08-31T17:18:51.739Z,96227.69
2022-08-31T17:21:21.209Z,96230.59
2022-08-31T17:23:51.156Z,96230.59
2022-08-31T17:26:21.632Z,96237.88
2022-08-31T17:28:53.036Z,96244.06
2022-08-31T17:31:20.536Z,96239.72
2022-08-31T17:33:47.351Z,96234.31
2022-08-31T17:36:18.916Z,96247.19
2022-08-31T17:38:49.392Z,96242.00
2022-08-31T17:41:16.546Z,96242.41
2022-08-31T17:43:44.881Z,96251.94
2022-08-31T17:46:13.760Z,96253.81
2022-08-31T17:48:45.285Z,96251.13
2022-08-31T17:51:28.477Z,96256.94
2022-08-31T17:54:01.992Z,96252.38
2022-08-31T17:56:35.034Z,96253.41
2022-08-31T17:59:01.728Z,96261.69
2022-08-31T18:01:30.949Z,96256.31
2022-08-31T18:03:59.623Z,96256.91
2022-08-31T18:06:27.328Z,96255.25
2022-08-31T18:08:55.568Z,96259.16
2022-08-31T18:11:23.354Z,96268.69
2022-08-31T18:13:53.488Z,96268.91
2022-08-31T18:16:20.903Z,96267.44
2022-08-31T18:18:49.802Z,96264.13
2022-08-31T18:21:19.848Z,96270.56
2022-08-31T18:23:46.798Z,96279.66
2022-08-31T18:26:21.070Z,96275.09
2022-08-31T18:28:48.823Z,96280.47
2022-08-31T18:31:17.856Z,96283.59
2022-08-31T18:33:51.562Z,96277.56
2022-08-31T18:36:23.305Z,96286.69
2022-08-31T18:38:51.882Z,96282.94
2022-08-31T18:41:39.824Z,96279.44
2022-08-31T18:44:25.785Z,96290.41
2022-08-31T18:46:52.866Z,96299.72
2022-08-31T18:49:22.332Z,96293.53
2022-08-31T18:51:50.388Z,96292.88
2022-08-31T18:54:21.402Z,96297.22
2022-08-31T18:56:48.987Z,96295.13
2022-08-31T18:59:18.295Z,96299.69
2022-08-31T19:01:46.753Z,96295.13
2022-08-31T19:04:16.593Z,96293.31
2022-08-31T19:06:46.909Z,96297.66
2022-08-31T19:09:13.612Z,96297.00
2022-08-31T19:11:51.761Z,96298.03
2022-08-31T19:14:20.602Z,96288.94
2022-08-31T19:16:51.339Z,96288.94
2022-08-31T19:19:22.008Z,96291.03
2022-08-31T19:21:48.937Z,96290.38
2022-08-31T19:24:18.153Z,96298.66
2022-08-31T19:26:52.237Z,96290.81
2022-08-31T19:29:22.953Z,96303.63
2022-08-31T19:31:50.652Z,96297.41
2022-08-31T19:34:22.280Z,96298.88
2022-08-31T19:36:54.351Z,96298.88
2022-08-31T19:39:24.517Z,96297.41
2022-08-31T19:41:54.118Z,96299.25
2022-08-31T19:44:22.281Z,96299.47
2022-08-31T19:46:53.131Z,96296.97
2022-08-31T19:49:19.974Z,96293.91
2022-08-31T19:51:51.858Z,96296.59
2022-08-31T19:54:21.378Z,96291.59
2022-08-31T19:56:48.242Z,96296.16
2022-08-31T19:59:21.141Z,96296.16
2022-08-31T20:01:53.155Z,96299.25
2022-08-31T20:04:23.493Z,96295.50
2022-08-31T20:06:52.163Z,96299.63
2022-08-31T20:09:21.347Z,96290.97
2022-08-31T20:11:48.977Z,96293.66
2022-08-31T20:14:17.627Z,96291.19
2022-08-31T20:16:45.763Z,96296.94
2022-08-31T20:19:18.919Z,96288.88
2022-08-31T20:21:46.070Z,96295.09
2022-08-31T20:24:13.995Z,96288.47
2022-08-31T20:26:47.243Z,96278.97
2022-08-31T20:29:19.367Z,96288.06
2022-08-31T20:31:50.017Z,96288.06
2022-08-31T20:34:21.848Z,96292.41
2022-08-31T20:36:50.958Z,96293.00
2022-08-31T20:39:19.017Z,96295.69
2022-08-31T20:41:48.700Z,96292.19
2022-08-31T20:44:26.633Z,96293.88
2022-08-31T20:47:15.871Z,96289.06
2022-08-31T20:49:50.944Z,96294.44
2022-08-31T20:52:17.902Z,96292.78
2022-08-31T20:54:44.916Z,96291.75
2022-08-31T20:57:13.816Z,96288.88
2022-08-31T20:59:41.640Z,96292.59
2022-08-31T21:02:09.768Z,96298.16
2022-08-31T21:04:39.444Z,96292.78
2022-08-31T21:07:07.700Z,96290.09
2022-08-31T21:09:34.563Z,96291.16
2022-08-31T21:12:01.541Z,96289.50
2022-08-31T21:14:29.546Z,96291.75
2022-08-31T21:16:56.900Z,96287.41
2022-08-31T21:19:24.668Z,96294.88
2022-08-31T21:21:56.267Z,96293.19
2022-08-31T21:24:23.295Z,96293.41
2022-08-31T21:26:59.463Z,96286.56
2022-08-31T21:29:28.293Z,96293.38
2022-08-31T21:32:01.169Z,96300.41
2022-08-31T21:34:30.259Z,96292.34
2022-08-31T21:36:56.981Z,96293.19
2022-08-31T21:39:24.889Z,96291.50
2022-08-31T21:41:51.859Z,96293.59
2022-08-31T21:44:21.025Z,96297.09
2022-08-31T21:46:50.925Z,96292.56
2022-08-31T21:49:18.801Z,96291.72
2022-08-31T21:51:49.842Z,96291.94
2022-08-31T21:54:19.307Z,96291.72
2022-08-31T21:56:51.808Z,96294.41
2022-08-31T21:59:21.272Z,96295.03
2022-08-31T22:01:49.278Z,96292.53
2022-08-31T22:04:20.002Z,96293.34
2022-08-31T22:06:49.810Z,96295.59
2022-08-31T22:09:19.461Z,96285.28
2022-08-31T22:11:50.787Z,96295.78
2022-08-31T22:14:20.356Z,96292.50
2022-08-31T22:16:48.559Z,96294.16
2022-08-31T22:19:21.033Z,96293.09
2022-08-31T22:21:50.287Z,96293.75
2022-08-31T22:24:27.604Z,96291.06
2022-08-31T22:27:13.279Z,96287.72
2022-08-31T22:29:40.771Z,96288.13
2022-08-31T22:32:12.140Z,96287.31
2022-08-31T22:34:40.394Z,96290.63
2022-08-31T22:37:08.415Z,96305.69
2022-08-31T22:39:35.145Z,96304.00
2022-08-31T22:42:02.258Z,96302.34
2022-08-31T22:44:34.249Z,96297.19
2022-08-31T22:47:01.906Z,96297.19
2022-08-31T22:49:29.038Z,96296.38
2022-08-31T22:51:56.990Z,96295.34
2022-08-31T22:54:57.660Z,96305.84
2022-08-31T22:57:24.384Z,96294.22
2022-08-31T22:59:52.548Z,96302.28
2022-08-31T23:02:19.290Z,96297.28
2022-08-31T23:04:46.095Z,96304.31
2022-08-31T23:07:16.383Z,96299.34
2022-08-31T23:09:44.369Z,96300.53
2022-08-31T23:12:11.241Z,96313.09
2022-08-31T23:14:41.215Z,96306.84
2022-08-31T23:17:09.191Z,96300.22
2022-08-31T23:19:41.888Z,96309.28
2022-08-31T23:22:11.393Z,96305.78
2022-08-31T23:24:47.131Z,96307.19
2022-08-31T23:27:19.831Z,96300.78
2022-08-31T23:29:50.102Z,96295.81
2022-08-31T23:32:19.397Z,96295.56
2022-08-31T23:34:49.893Z,96299.88
2022-08-31T23:37:17.931Z,96292.88
2022-08-31T23:39:46.350Z,96291.22
2022-08-31T23:42:16.563Z,96291.81
2022-08-31T23:44:45.959Z,96287.09
2022-08-31T23:47:15.726Z,96289.78
2022-08-31T23:49:45.672Z,96289.38
2022-08-31T23:52:13.440Z,96280.13
2022-08-31T23:54:40.476Z,96286.72
2022-08-31T23:57:14.361Z,96284.22
